sensor_id;sensor_type;location;lat;lon;timestamp;P1;durP1;ratioP1;P2;durP2;ratioP2
28373;SDS011;15616;40.148;-102.718;2022-08-19T00:01:50;14.63;;;11.60;;
28373;SDS011;15616;40.148;-102.718;2022-08-19T00:04:18;14.80;;;12.02;;
28373;SDS011;15616;40.148;-102.718;2022-08-19T00:06:49;15.43;;;11.95;;
28373;SDS011;15616;40.148;-102.718;2022-08-19T00:09:16;14.75;;;12.02;;
28373;SDS011;15616;40.148;-102.718;2022-08-19T00:11:44;15.73;;;12.10;;
28373;SDS011;15616;40.148;-102.718;2022-08-19T00:14:12;19.10;;;12.18;;
28373;SDS011;15616;40.148;-102.718;2022-08-19T00:16:42;17.25;;;11.63;;
28373;SDS011;15616;40.148;-102.718;2022-08-19T00:19:09;18.50;;;12.10;;
28373;SDS011;15616;40.148;-102.718;2022-08-19T00:21:36;15.20;;;11.73;;
28373;SDS011;15616;40.148;-102.718;2022-08-19T00:24:05;17.02;;;11.93;;
28373;SDS011;15616;40.148;-102.718;2022-08-19T00:26:35;16.23;;;11.90;;
28373;SDS011;15616;40.148;-102.718;2022-08-19T00:29:05;16.58;;;10.90;;
28373;SDS011;15616;40.148;-102.718;2022-08-19T00:31:32;15.40;;;11.20;;
28373;SDS011;15616;40.148;-102.718;2022-08-19T00:33:59;22.85;;;12.20;;
28373;SDS011;15616;40.148;-102.718;2022-08-19T00:36:25;14.27;;;11.63;;
28373;SDS011;15616;40.148;-102.718;2022-08-19T00:38:53;14.55;;;11.65;;
28373;SDS011;15616;40.148;-102.718;2022-08-19T00:41:20;15.57;;;11.85;;
28373;SDS011;15616;40.148;-102.718;2022-08-19T00:44:01;17.60;;;11.82;;
28373;SDS011;15616;40.148;-102.718;2022-08-19T00:46:34;15.07;;;11.27;;
28373;SDS011;15616;40.148;-102.718;2022-08-19T00:49:06;16.05;;;12.02;;
28373;SDS011;15616;40.148;-102.718;2022-08-19T00:51:39;15.75;;;11.38;;
28373;SDS011;15616;40.148;-102.718;2022-08-19T00:54:07;13.65;;;10.95;;
28373;SDS011;15616;40.148;-102.718;2022-08-19T00:56:34;15.35;;;10.98;;
28373;SDS011;15616;40.148;-102.718;2022-08-19T00:59:02;13.68;;;11.20;;
28373;SDS011;15616;40.148;-102.718;2022-08-19T01:01:35;18.27;;;10.98;;
28373;SDS011;15616;40.148;-102.718;2022-08-19T01:04:02;13.80;;;11.25;;
28373;SDS011;15616;40.148;-102.718;2022-08-19T01:06:28;14.30;;;10.68;;
28373;SDS011;15616;40.148;-102.718;2022-08-19T01:08:58;14.95;;;11.13;;
28373;SDS011;15616;40.148;-102.718;2022-08-19T01:11:26;14.30;;;11.00;;
28373;SDS011;15616;40.148;-102.718;2022-08-19T01:13:56;14.65;;;11.52;;
28373;SDS011;15616;40.148;-102.718;2022-08-19T01:16:23;15.60;;;11.18;;
28373;SDS011;15616;40.148;-102.718;2022-08-19T01:18:52;14.40;;;11.25;;
28373;SDS011;15616;40.148;-102.718;2022-08-19T01:21:21;14.50;;;11.25;;
28373;SDS011;15616;40.148;-102.718;2022-08-19T01:23:48;15.30;;;11.75;;
28373;SDS011;15616;40.148;-102.718;2022-08-19T01:26:16;15.45;;;11.23;;
28373;SDS011;15616;40.148;-102.718;2022-08-19T01:28:46;15.93;;;11.20;;
28373;SDS011;15616;40.148;-102.718;2022-08-19T01:31:16;14.05;;;10.75;;
28373;SDS011;15616;40.148;-102.718;2022-08-19T01:33:47;15.13;;;10.57;;
28373;SDS011;15616;40.148;-102.718;2022-08-19T01:36:16;16.50;;;11.30;;
28373;SDS011;15616;40.148;-102.718;2022-08-19T01:38:58;16.85;;;11.40;;
28373;SDS011;15616;40.148;-102.718;2022-08-19T01:41:26;15.10;;;10.57;;
28373;SDS011;15616;40.148;-102.718;2022-08-19T01:43:52;13.80;;;10.90;;
28373;SDS011;15616;40.148;-102.718;2022-08-19T01:46:19;14.13;;;11.02;;
28373;SDS011;15616;40.148;-102.718;2022-08-19T01:48:45;13.85;;;10.88;;
28373;SDS011;15616;40.148;-102.718;2022-08-19T01:51:11;13.93;;;10.88;;
28373;SDS011;15616;40.148;-102.718;2022-08-19T01:53:38;13.80;;;10.30;;
28373;SDS011;15616;40.148;-102.718;2022-08-19T01:56:05;14.13;;;10.90;;
28373;SDS011;15616;40.148;-102.718;2022-08-19T01:58:41;13.55;;;10.60;;
28373;SDS011;15616;40.148;-102.718;2022-08-19T02:01:12;13.05;;;10.57;;
28373;SDS011;15616;40.148;-102.718;2022-08-19T02:03:39;12.93;;;10.52;;
28373;SDS011;15616;40.148;-102.718;2022-08-19T02:06:05;15.70;;;10.98;;
28373;SDS011;15616;40.148;-102.718;2022-08-19T02:08:33;13.65;;;11.02;;
28373;SDS011;15616;40.148;-102.718;2022-08-19T02:11:02;15.68;;;10.27;;
28373;SDS011;15616;40.148;-102.718;2022-08-19T02:13:28;13.20;;;10.15;;
28373;SDS011;15616;40.148;-102.718;2022-08-19T02:15:54;14.32;;;10.27;;
28373;SDS011;15616;40.148;-102.718;2022-08-19T02:18:20;14.20;;;10.63;;
28373;SDS011;15616;40.148;-102.718;2022-08-19T02:20:46;13.27;;;10.25;;
28373;SDS011;15616;40.148;-102.718;2022-08-19T02:23:12;15.30;;;10.65;;
28373;SDS011;15616;40.148;-102.718;2022-08-19T02:25:40;12.75;;;10.20;;
28373;SDS011;15616;40.148;-102.718;2022-08-19T02:28:07;14.13;;;10.55;;
28373;SDS011;15616;40.148;-102.718;2022-08-19T02:30:33;14.90;;;10.95;;
28373;SDS011;15616;40.148;-102.718;2022-08-19T02:32:59;15.30;;;10.20;;
28373;SDS011;15616;40.148;-102.718;2022-08-19T02:35:25;14.63;;;10.85;;
28373;SDS011;15616;40.148;-102.718;2022-08-19T02:37:51;12.98;;;10.45;;
28373;SDS011;15616;40.148;-102.718;2022-08-19T02:40:36;14.98;;;10.50;;
28373;SDS011;15616;40.148;-102.718;2022-08-19T02:43:02;13.88;;;10.02;;
28373;SDS011;15616;40.148;-102.718;2022-08-19T02:45:35;12.90;;;10.27;;
28373;SDS011;15616;40.148;-102.718;2022-08-19T02:48:04;15.63;;;10.65;;
28373;SDS011;15616;40.148;-102.718;2022-08-19T02:50:31;12.30;;;10.57;;
28373;SDS011;15616;40.148;-102.718;2022-08-19T02:52:57;16.27;;;10.73;;
28373;SDS011;15616;40.148;-102.718;2022-08-19T02:55:23;13.38;;;10.43;;
28373;SDS011;15616;40.148;-102.718;2022-08-19T02:57:49;15.18;;;10.98;;
28373;SDS011;15616;40.148;-102.718;2022-08-19T03:00:15;14.48;;;10.95;;
28373;SDS011;15616;40.148;-102.718;2022-08-19T03:02:41;13.57;;;10.40;;
28373;SDS011;15616;40.148;-102.718;2022-08-19T03:05:08;13.73;;;10.88;;
28373;SDS011;15616;40.148;-102.718;2022-08-19T03:07:34;14.10;;;10.27;;
28373;SDS011;15616;40.148;-102.718;2022-08-19T03:10:01;13.60;;;10.70;;
28373;SDS011;15616;40.148;-102.718;2022-08-19T03:12:27;15.60;;;10.65;;
28373;SDS011;15616;40.148;-102.718;2022-08-19T03:14:53;19.08;;;10.50;;
28373;SDS011;15616;40.148;-102.718;2022-08-19T03:17:19;13.43;;;10.57;;
28373;SDS011;15616;40.148;-102.718;2022-08-19T03:19:45;13.57;;;10.25;;
28373;SDS011;15616;40.148;-102.718;2022-08-19T03:22:11;14.15;;;11.13;;
28373;SDS011;15616;40.148;-102.718;2022-08-19T03:24:37;14.75;;;10.77;;
28373;SDS011;15616;40.148;-102.718;2022-08-19T03:27:04;12.65;;;10.50;;
28373;SDS011;15616;40.148;-102.718;2022-08-19T03:29:30;12.40;;;10.05;;
28373;SDS011;15616;40.148;-102.718;2022-08-19T03:31:58;13.10;;;10.48;;
28373;SDS011;15616;40.148;-102.718;2022-08-19T03:34:26;13.10;;;10.40;;
28373;SDS011;15616;40.148;-102.718;2022-08-19T03:36:55;14.57;;;10.60;;
28373;SDS011;15616;40.148;-102.718;2022-08-19T03:39:24;17.17;;;10.77;;
28373;SDS011;15616;40.148;-102.718;2022-08-19T03:41:51;13.18;;;10.13;;
28373;SDS011;15616;40.148;-102.718;2022-08-19T03:44:20;14.13;;;11.13;;
28373;SDS011;15616;40.148;-102.718;2022-08-19T03:46:48;15.35;;;10.18;;
28373;SDS011;15616;40.148;-102.718;2022-08-19T03:49:20;14.15;;;10.73;;
28373;SDS011;15616;40.148;-102.718;2022-08-19T03:51:48;16.77;;;10.70;;
28373;SDS011;15616;40.148;-102.718;2022-08-19T03:54:16;13.80;;;10.77;;
28373;SDS011;15616;40.148;-102.718;2022-08-19T03:56:45;14.52;;;10.82;;
28373;SDS011;15616;40.148;-102.718;2022-08-19T03:59:15;11.57;;;9.98;;
28373;SDS011;15616;40.148;-102.718;2022-08-19T04:01:43;16.23;;;10.20;;
28373;SDS011;15616;40.148;-102.718;2022-08-19T04:04:09;12.88;;;10.63;;
28373;SDS011;15616;40.148;-102.718;2022-08-19T04:06:36;11.98;;;10.43;;
28373;SDS011;15616;40.148;-102.718;2022-08-19T04:09:04;13.00;;;9.85;;
28373;SDS011;15616;40.148;-102.718;2022-08-19T04:11:34;14.57;;;10.55;;
28373;SDS011;15616;40.148;-102.718;2022-08-19T04:14:06;15.18;;;10.95;;
28373;SDS011;15616;40.148;-102.718;2022-08-19T04:16:33;14.68;;;10.80;;
28373;SDS011;15616;40.148;-102.718;2022-08-19T04:18:59;14.48;;;10.90;;
28373;SDS011;15616;40.148;-102.718;2022-08-19T04:21:28;13.93;;;10.95;;
28373;SDS011;15616;40.148;-102.718;2022-08-19T04:23:54;14.82;;;10.50;;
28373;SDS011;15616;40.148;-102.718;2022-08-19T04:26:23;12.77;;;10.27;;
28373;SDS011;15616;40.148;-102.718;2022-08-19T04:28:51;12.00;;;10.00;;
28373;SDS011;15616;40.148;-102.718;2022-08-19T04:31:19;12.93;;;9.95;;
28373;SDS011;15616;40.148;-102.718;2022-08-19T04:33:47;15.52;;;10.93;;
28373;SDS011;15616;40.148;-102.718;2022-08-19T04:36:17;15.90;;;10.25;;
28373;SDS011;15616;40.148;-102.718;2022-08-19T04:38:46;13.40;;;10.32;;
28373;SDS011;15616;40.148;-102.718;2022-08-19T04:41:13;38.15;;;10.95;;
28373;SDS011;15616;40.148;-102.718;2022-08-19T04:43:58;12.70;;;9.70;;
28373;SDS011;15616;40.148;-102.718;2022-08-19T04:46:23;12.65;;;10.10;;
28373;SDS011;15616;40.148;-102.718;2022-08-19T04:48:50;13.02;;;10.45;;
28373;SDS011;15616;40.148;-102.718;2022-08-19T04:51:16;15.77;;;10.10;;
28373;SDS011;15616;40.148;-102.718;2022-08-19T04:53:42;13.73;;;9.82;;
28373;SDS011;15616;40.148;-102.718;2022-08-19T04:58:36;13.25;;;9.77;;
28373;SDS011;15616;40.148;-102.718;2022-08-19T05:01:03;13.48;;;10.13;;
28373;SDS011;15616;40.148;-102.718;2022-08-19T05:03:29;11.45;;;9.40;;
28373;SDS011;15616;40.148;-102.718;2022-08-19T05:06:04;12.40;;;10.10;;
28373;SDS011;15616;40.148;-102.718;2022-08-19T05:08:35;13.60;;;10.25;;
28373;SDS011;15616;40.148;-102.718;2022-08-19T05:11:07;12.40;;;9.52;;
28373;SDS011;15616;40.148;-102.718;2022-08-19T05:13:51;11.90;;;9.07;;
28373;SDS011;15616;40.148;-102.718;2022-08-19T05:16:18;11.90;;;9.85;;
28373;SDS011;15616;40.148;-102.718;2022-08-19T05:18:46;12.88;;;9.68;;
28373;SDS011;15616;40.148;-102.718;2022-08-19T05:21:31;15.23;;;9.75;;
28373;SDS011;15616;40.148;-102.718;2022-08-19T05:24:16;14.25;;;9.55;;
28373;SDS011;15616;40.148;-102.718;2022-08-19T05:26:44;14.23;;;9.80;;
28373;SDS011;15616;40.148;-102.718;2022-08-19T05:29:13;12.55;;;9.23;;
28373;SDS011;15616;40.148;-102.718;2022-08-19T05:31:40;10.32;;;8.55;;
28373;SDS011;15616;40.148;-102.718;2022-08-19T05:34:06;11.52;;;9.10;;
28373;SDS011;15616;40.148;-102.718;2022-08-19T05:36:34;12.55;;;9.02;;
28373;SDS011;15616;40.148;-102.718;2022-08-19T05:39:06;11.75;;;8.48;;
28373;SDS011;15616;40.148;-102.718;2022-08-19T05:41:33;14.13;;;9.40;;
28373;SDS011;15616;40.148;-102.718;2022-08-19T05:44:04;13.93;;;9.30;;
28373;SDS011;15616;40.148;-102.718;2022-08-19T05:46:35;12.10;;;8.73;;
28373;SDS011;15616;40.148;-102.718;2022-08-19T05:49:06;10.98;;;8.40;;
28373;SDS011;15616;40.148;-102.718;2022-08-19T05:51:33;11.90;;;8.80;;
28373;SDS011;15616;40.148;-102.718;2022-08-19T05:54:02;11.38;;;8.70;;
28373;SDS011;15616;40.148;-102.718;2022-08-19T05:56:29;13.20;;;8.85;;
28373;SDS011;15616;40.148;-102.718;2022-08-19T05:58:56;11.48;;;8.45;;
28373;SDS011;15616;40.148;-102.718;2022-08-19T06:01:24;10.65;;;8.13;;
28373;SDS011;15616;40.148;-102.718;2022-08-19T06:03:51;13.52;;;8.48;;
28373;SDS011;15616;40.148;-102.718;2022-08-19T06:06:19;12.50;;;8.68;;
28373;SDS011;15616;40.148;-102.718;2022-08-19T06:08:45;10.75;;;8.10;;
28373;SDS011;15616;40.148;-102.718;2022-08-19T06:14:19;9.73;;;7.60;;
28373;SDS011;15616;40.148;-102.718;2022-08-19T06:16:48;13.30;;;8.45;;
28373;SDS011;15616;40.148;-102.718;2022-08-19T06:19:18;11.60;;;7.97;;
28373;SDS011;15616;40.148;-102.718;2022-08-19T06:21:46;14.32;;;8.57;;
28373;SDS011;15616;40.148;-102.718;2022-08-19T06:24:14;11.18;;;8.50;;
28373;SDS011;15616;40.148;-102.718;2022-08-19T06:26:43;13.85;;;8.05;;
28373;SDS011;15616;40.148;-102.718;2022-08-19T06:29:11;11.48;;;8.60;;
28373;SDS011;15616;40.148;-102.718;2022-08-19T06:31:41;10.65;;;7.38;;
28373;SDS011;15616;40.148;-102.718;2022-08-19T06:34:09;10.63;;;8.05;;
28373;SDS011;15616;40.148;-102.718;2022-08-19T06:36:37;12.32;;;8.00;;
28373;SDS011;15616;40.148;-102.718;2022-08-19T06:39:19;11.80;;;7.93;;
28373;SDS011;15616;40.148;-102.718;2022-08-19T06:41:49;12.25;;;8.02;;
28373;SDS011;15616;40.148;-102.718;2022-08-19T06:44:17;12.15;;;8.10;;
28373;SDS011;15616;40.148;-102.718;2022-08-19T06:46:44;9.55;;;7.25;;
28373;SDS011;15616;40.148;-102.718;2022-08-19T06:49:11;11.13;;;7.32;;
28373;SDS011;15616;40.148;-102.718;2022-08-19T06:51:42;14.43;;;7.85;;
28373;SDS011;15616;40.148;-102.718;2022-08-19T06:54:11;13.02;;;7.70;;
28373;SDS011;15616;40.148;-102.718;2022-08-19T06:56:37;13.05;;;7.72;;
28373;SDS011;15616;40.148;-102.718;2022-08-19T06:59:04;12.95;;;7.50;;
28373;SDS011;15616;40.148;-102.718;2022-08-19T07:01:36;12.07;;;7.55;;
28373;SDS011;15616;40.148;-102.718;2022-08-19T07:04:08;10.45;;;7.53;;
28373;SDS011;15616;40.148;-102.718;2022-08-19T07:06:35;14.07;;;7.35;;
28373;SDS011;15616;40.148;-102.718;2022-08-19T07:09:02;12.80;;;7.75;;
28373;SDS011;15616;40.148;-102.718;2022-08-19T07:11:34;11.77;;;7.85;;
28373;SDS011;15616;40.148;-102.718;2022-08-19T07:14:01;11.10;;;7.30;;
28373;SDS011;15616;40.148;-102.718;2022-08-19T07:16:28;13.80;;;7.45;;
28373;SDS011;15616;40.148;-102.718;2022-08-19T07:18:54;11.25;;;7.32;;
28373;SDS011;15616;40.148;-102.718;2022-08-19T07:21:25;13.68;;;7.72;;
28373;SDS011;15616;40.148;-102.718;2022-08-19T07:23:55;11.02;;;7.50;;
28373;SDS011;15616;40.148;-102.718;2022-08-19T07:26:30;12.60;;;8.27;;
28373;SDS011;15616;40.148;-102.718;2022-08-19T07:29:04;12.98;;;8.00;;
28373;SDS011;15616;40.148;-102.718;2022-08-19T07:31:30;14.90;;;8.45;;
28373;SDS011;15616;40.148;-102.718;2022-08-19T07:34:02;12.02;;;8.20;;
28373;SDS011;15616;40.148;-102.718;2022-08-19T07:36:32;13.35;;;8.13;;
28373;SDS011;15616;40.148;-102.718;2022-08-19T07:39:00;15.80;;;8.07;;
28373;SDS011;15616;40.148;-102.718;2022-08-19T07:41:29;12.90;;;8.15;;
28373;SDS011;15616;40.148;-102.718;2022-08-19T07:43:57;13.05;;;8.38;;
28373;SDS011;15616;40.148;-102.718;2022-08-19T07:46:30;15.02;;;8.40;;
28373;SDS011;15616;40.148;-102.718;2022-08-19T07:48:56;47.97;;;9.68;;
28373;SDS011;15616;40.148;-102.718;2022-08-19T07:51:23;13.13;;;7.85;;
28373;SDS011;15616;40.148;-102.718;2022-08-19T07:53:49;17.77;;;8.20;;
28373;SDS011;15616;40.148;-102.718;2022-08-19T07:56:16;19.63;;;7.63;;
28373;SDS011;15616;40.148;-102.718;2022-08-19T07:58:44;18.73;;;7.80;;
28373;SDS011;15616;40.148;-102.718;2022-08-19T08:01:13;14.88;;;8.27;;
28373;SDS011;15616;40.148;-102.718;2022-08-19T08:03:42;18.17;;;8.18;;
28373;SDS011;15616;40.148;-102.718;2022-08-19T08:06:27;17.60;;;8.07;;
28373;SDS011;15616;40.148;-102.718;2022-08-19T08:11:56;15.10;;;8.20;;
28373;SDS011;15616;40.148;-102.718;2022-08-19T08:14:28;19.27;;;8.25;;
28373;SDS011;15616;40.148;-102.718;2022-08-19T08:16:58;17.38;;;8.00;;
28373;SDS011;15616;40.148;-102.718;2022-08-19T08:19:24;21.17;;;8.48;;
28373;SDS011;15616;40.148;-102.718;2022-08-19T08:21:52;20.55;;;8.10;;
28373;SDS011;15616;40.148;-102.718;2022-08-19T08:24:19;18.67;;;8.15;;
28373;SDS011;15616;40.148;-102.718;2022-08-19T08:26:45;17.45;;;8.43;;
28373;SDS011;15616;40.148;-102.718;2022-08-19T08:29:12;16.58;;;8.07;;
28373;SDS011;15616;40.148;-102.718;2022-08-19T08:31:40;22.75;;;7.72;;
28373;SDS011;15616;40.148;-102.718;2022-08-19T08:34:08;17.55;;;8.27;;
28373;SDS011;15616;40.148;-102.718;2022-08-19T08:36:36;20.45;;;8.15;;
28373;SDS011;15616;40.148;-102.718;2022-08-19T08:39:08;20.38;;;8.43;;
28373;SDS011;15616;40.148;-102.718;2022-08-19T08:41:39;20.15;;;7.95;;
28373;SDS011;15616;40.148;-102.718;2022-08-19T08:44:17;19.88;;;8.20;;
28373;SDS011;15616;40.148;-102.718;2022-08-19T08:46:51;18.40;;;7.60;;
28373;SDS011;15616;40.148;-102.718;2022-08-19T08:52:30;14.32;;;7.38;;
28373;SDS011;15616;40.148;-102.718;2022-08-19T08:55:08;20.83;;;7.43;;
28373;SDS011;15616;40.148;-102.718;2022-08-19T09:02:54;16.92;;;7.13;;
28373;SDS011;15616;40.148;-102.718;2022-08-19T09:05:22;18.38;;;7.50;;
28373;SDS011;15616;40.148;-102.718;2022-08-19T09:08:01;17.88;;;7.30;;
28373;SDS011;15616;40.148;-102.718;2022-08-19T09:10:53;16.52;;;7.03;;
28373;SDS011;15616;40.148;-102.718;2022-08-19T09:16:19;19.50;;;7.65;;
28373;SDS011;15616;40.148;-102.718;2022-08-19T09:18:50;13.50;;;7.50;;
28373;SDS011;15616;40.148;-102.718;2022-08-19T09:21:21;19.50;;;7.20;;
28373;SDS011;15616;40.148;-102.718;2022-08-19T09:23:48;14.07;;;7.15;;
28373;SDS011;15616;40.148;-102.718;2022-08-19T09:26:15;20.65;;;7.45;;
28373;SDS011;15616;40.148;-102.718;2022-08-19T09:28:44;19.30;;;7.18;;
28373;SDS011;15616;40.148;-102.718;2022-08-19T09:31:11;21.73;;;8.00;;
28373;SDS011;15616;40.148;-102.718;2022-08-19T09:33:39;15.18;;;7.30;;
28373;SDS011;15616;40.148;-102.718;2022-08-19T09:36:09;20.17;;;8.10;;
28373;SDS011;15616;40.148;-102.718;2022-08-19T09:38:37;17.75;;;7.03;;
28373;SDS011;15616;40.148;-102.718;2022-08-19T09:41:08;41.25;;;8.05;;
28373;SDS011;15616;40.148;-102.718;2022-08-19T09:43:40;18.75;;;7.20;;
28373;SDS011;15616;40.148;-102.718;2022-08-19T09:46:08;21.27;;;6.93;;
28373;SDS011;15616;40.148;-102.718;2022-08-19T09:48:37;40.78;;;8.18;;
28373;SDS011;15616;40.148;-102.718;2022-08-19T09:51:13;19.75;;;7.78;;
28373;SDS011;15616;40.148;-102.718;2022-08-19T09:53:41;16.55;;;7.45;;
28373;SDS011;15616;40.148;-102.718;2022-08-19T09:56:08;13.45;;;6.82;;
28373;SDS011;15616;40.148;-102.718;2022-08-19T09:58:35;19.30;;;8.13;;
28373;SDS011;15616;40.148;-102.718;2022-08-19T10:01:02;22.73;;;7.13;;
28373;SDS011;15616;40.148;-102.718;2022-08-19T10:03:30;14.13;;;6.82;;
28373;SDS011;15616;40.148;-102.718;2022-08-19T10:05:58;19.83;;;7.22;;
28373;SDS011;15616;40.148;-102.718;2022-08-19T10:08:27;20.73;;;6.80;;
28373;SDS011;15616;40.148;-102.718;2022-08-19T10:10:55;16.73;;;6.75;;
28373;SDS011;15616;40.148;-102.718;2022-08-19T10:13:23;17.27;;;7.20;;
28373;SDS011;15616;40.148;-102.718;2022-08-19T10:15:52;19.85;;;8.10;;
28373;SDS011;15616;40.148;-102.718;2022-08-19T10:18:20;17.13;;;6.93;;
28373;SDS011;15616;40.148;-102.718;2022-08-19T10:20:47;15.10;;;6.70;;
28373;SDS011;15616;40.148;-102.718;2022-08-19T10:23:14;19.15;;;7.43;;
28373;SDS011;15616;40.148;-102.718;2022-08-19T10:25:40;21.55;;;7.32;;
28373;SDS011;15616;40.148;-102.718;2022-08-19T10:28:07;14.95;;;7.10;;
28373;SDS011;15616;40.148;-102.718;2022-08-19T10:30:37;16.10;;;6.82;;
28373;SDS011;15616;40.148;-102.718;2022-08-19T10:33:07;22.15;;;6.82;;
28373;SDS011;15616;40.148;-102.718;2022-08-19T10:35:33;21.27;;;7.05;;
28373;SDS011;15616;40.148;-102.718;2022-08-19T10:37:59;15.77;;;7.13;;
28373;SDS011;15616;40.148;-102.718;2022-08-19T10:40:27;18.52;;;6.68;;
28373;SDS011;15616;40.148;-102.718;2022-08-19T10:42:53;18.33;;;7.25;;
28373;SDS011;15616;40.148;-102.718;2022-08-19T10:45:23;19.00;;;7.38;;
28373;SDS011;15616;40.148;-102.718;2022-08-19T10:47:52;24.20;;;7.43;;
28373;SDS011;15616;40.148;-102.718;2022-08-19T10:50:18;51.67;;;9.02;;
28373;SDS011;15616;40.148;-102.718;2022-08-19T10:53:04;20.50;;;7.60;;
28373;SDS011;15616;40.148;-102.718;2022-08-19T10:55:33;18.58;;;6.72;;
28373;SDS011;15616;40.148;-102.718;2022-08-19T10:58:19;21.10;;;7.32;;
28373;SDS011;15616;40.148;-102.718;2022-08-19T11:00:52;19.27;;;6.60;;
28373;SDS011;15616;40.148;-102.718;2022-08-19T11:03:19;16.90;;;6.97;;
28373;SDS011;15616;40.148;-102.718;2022-08-19T11:05:46;16.13;;;6.53;;
28373;SDS011;15616;40.148;-102.718;2022-08-19T11:08:13;16.77;;;6.78;;
28373;SDS011;15616;40.148;-102.718;2022-08-19T11:10:42;19.92;;;6.30;;
28373;SDS011;15616;40.148;-102.718;2022-08-19T11:13:09;14.43;;;7.68;;
28373;SDS011;15616;40.148;-102.718;2022-08-19T11:15:35;17.88;;;6.80;;
28373;SDS011;15616;40.148;-102.718;2022-08-19T11:18:01;18.75;;;7.10;;
28373;SDS011;15616;40.148;-102.718;2022-08-19T11:20:26;17.95;;;6.75;;
28373;SDS011;15616;40.148;-102.718;2022-08-19T11:22:52;16.13;;;7.22;;
28373;SDS011;15616;40.148;-102.718;2022-08-19T11:25:19;19.17;;;7.78;;
28373;SDS011;15616;40.148;-102.718;2022-08-19T11:27:45;20.60;;;7.72;;
28373;SDS011;15616;40.148;-102.718;2022-08-19T11:30:12;21.70;;;7.95;;
28373;SDS011;15616;40.148;-102.718;2022-08-19T11:32:41;28.50;;;8.45;;
28373;SDS011;15616;40.148;-102.718;2022-08-19T11:35:07;24.85;;;8.13;;
28373;SDS011;15616;40.148;-102.718;2022-08-19T11:37:33;16.15;;;8.43;;
28373;SDS011;15616;40.148;-102.718;2022-08-19T11:40:03;21.75;;;8.32;;
28373;SDS011;15616;40.148;-102.718;2022-08-19T11:42:30;20.30;;;8.63;;
28373;SDS011;15616;40.148;-102.718;2022-08-19T11:45:14;34.63;;;9.55;;
28373;SDS011;15616;40.148;-102.718;2022-08-19T11:47:40;21.27;;;9.50;;
28373;SDS011;15616;40.148;-102.718;2022-08-19T11:50:06;19.40;;;9.00;;
28373;SDS011;15616;40.148;-102.718;2022-08-19T11:52:32;21.90;;;9.27;;
28373;SDS011;15616;40.148;-102.718;2022-08-19T11:54:59;24.10;;;9.73;;
28373;SDS011;15616;40.148;-102.718;2022-08-19T11:57:25;23.85;;;10.07;;
28373;SDS011;15616;40.148;-102.718;2022-08-19T11:59:52;20.58;;;9.73;;
28373;SDS011;15616;40.148;-102.718;2022-08-19T12:02:18;18.77;;;9.32;;
28373;SDS011;15616;40.148;-102.718;2022-08-19T12:04:44;21.95;;;9.27;;
28373;SDS011;15616;40.148;-102.718;2022-08-19T12:07:10;26.98;;;9.45;;
28373;SDS011;15616;40.148;-102.718;2022-08-19T12:09:36;28.70;;;9.77;;
28373;SDS011;15616;40.148;-102.718;2022-08-19T12:12:04;18.88;;;9.27;;
28373;SDS011;15616;40.148;-102.718;2022-08-19T12:14:30;29.85;;;10.07;;
28373;SDS011;15616;40.148;-102.718;2022-08-19T12:16:57;22.77;;;9.88;;
28373;SDS011;15616;40.148;-102.718;2022-08-19T12:19:23;28.73;;;9.43;;
28373;SDS011;15616;40.148;-102.718;2022-08-19T12:21:50;23.48;;;9.27;;
28373;SDS011;15616;40.148;-102.718;2022-08-19T12:24:18;21.08;;;9.88;;
28373;SDS011;15616;40.148;-102.718;2022-08-19T12:26:48;29.67;;;9.82;;
28373;SDS011;15616;40.148;-102.718;2022-08-19T12:29:14;25.55;;;10.15;;
28373;SDS011;15616;40.148;-102.718;2022-08-19T12:31:40;25.27;;;10.68;;
28373;SDS011;15616;40.148;-102.718;2022-08-19T12:34:06;22.92;;;10.60;;
28373;SDS011;15616;40.148;-102.718;2022-08-19T12:36:33;28.35;;;10.88;;
28373;SDS011;15616;40.148;-102.718;2022-08-19T12:38:59;20.95;;;11.20;;
28373;SDS011;15616;40.148;-102.718;2022-08-19T12:41:25;22.83;;;10.63;;
28373;SDS011;15616;40.148;-102.718;2022-08-19T12:43:51;25.00;;;10.88;;
28373;SDS011;15616;40.148;-102.718;2022-08-19T12:46:18;23.65;;;10.30;;
28373;SDS011;15616;40.148;-102.718;2022-08-19T12:48:45;25.73;;;10.00;;
28373;SDS011;15616;40.148;-102.718;2022-08-19T12:51:14;20.20;;;9.90;;
28373;SDS011;15616;40.148;-102.718;2022-08-19T12:53:44;18.08;;;9.80;;
28373;SDS011;15616;40.148;-102.718;2022-08-19T12:56:11;17.23;;;9.00;;
28373;SDS011;15616;40.148;-102.718;2022-08-19T12:58:39;22.35;;;9.32;;
28373;SDS011;15616;40.148;-102.718;2022-08-19T13:01:07;20.15;;;9.32;;
28373;SDS011;15616;40.148;-102.718;2022-08-19T13:03:35;14.25;;;8.70;;
28373;SDS011;15616;40.148;-102.718;2022-08-19T13:06:02;14.77;;;8.05;;
28373;SDS011;15616;40.148;-102.718;2022-08-19T13:08:28;17.40;;;8.77;;
28373;SDS011;15616;40.148;-102.718;2022-08-19T13:10:54;16.38;;;8.43;;
28373;SDS011;15616;40.148;-102.718;2022-08-19T13:13:20;15.95;;;8.38;;
28373;SDS011;15616;40.148;-102.718;2022-08-19T13:15:47;19.08;;;7.95;;
28373;SDS011;15616;40.148;-102.718;2022-08-19T13:18:13;18.67;;;8.73;;
28373;SDS011;15616;40.148;-102.718;2022-08-19T13:20:39;18.45;;;8.48;;
28373;SDS011;15616;40.148;-102.718;2022-08-19T13:23:06;19.63;;;8.63;;
28373;SDS011;15616;40.148;-102.718;2022-08-19T13:25:32;21.17;;;8.60;;
28373;SDS011;15616;40.148;-102.718;2022-08-19T13:27:59;23.70;;;8.20;;
28373;SDS011;15616;40.148;-102.718;2022-08-19T13:30:25;22.10;;;8.38;;
28373;SDS011;15616;40.148;-102.718;2022-08-19T13:33:09;19.33;;;8.10;;
28373;SDS011;15616;40.148;-102.718;2022-08-19T13:35:39;17.45;;;8.23;;
28373;SDS011;15616;40.148;-102.718;2022-08-19T13:38:11;16.13;;;8.05;;
28373;SDS011;15616;40.148;-102.718;2022-08-19T13:40:39;17.55;;;8.70;;
28373;SDS011;15616;40.148;-102.718;2022-08-19T13:43:05;19.60;;;8.60;;
28373;SDS011;15616;40.148;-102.718;2022-08-19T13:45:32;20.17;;;8.63;;
28373;SDS011;15616;40.148;-102.718;2022-08-19T13:47:59;23.33;;;8.63;;
28373;SDS011;15616;40.148;-102.718;2022-08-19T13:50:29;14.55;;;7.97;;
28373;SDS011;15616;40.148;-102.718;2022-08-19T13:52:56;17.13;;;8.77;;
28373;SDS011;15616;40.148;-102.718;2022-08-19T13:55:23;15.63;;;8.95;;
28373;SDS011;15616;40.148;-102.718;2022-08-19T13:57:51;20.00;;;8.73;;
28373;SDS011;15616;40.148;-102.718;2022-08-19T14:00:19;19.15;;;9.27;;
28373;SDS011;15616;40.148;-102.718;2022-08-19T14:02:46;17.33;;;8.40;;
28373;SDS011;15616;40.148;-102.718;2022-08-19T14:05:15;17.77;;;8.90;;
28373;SDS011;15616;40.148;-102.718;2022-08-19T14:07:41;17.20;;;8.93;;
28373;SDS011;15616;40.148;-102.718;2022-08-19T14:10:08;14.57;;;8.98;;
28373;SDS011;15616;40.148;-102.718;2022-08-19T14:12:36;22.50;;;9.77;;
28373;SDS011;15616;40.148;-102.718;2022-08-19T14:15:03;16.50;;;9.68;;
28373;SDS011;15616;40.148;-102.718;2022-08-19T14:17:30;19.73;;;8.93;;
28373;SDS011;15616;40.148;-102.718;2022-08-19T14:19:59;17.98;;;8.73;;